Time;durP1;ratioP1;P1;durP2;ratioP2;P2;SDS_P1;SDS_P2;PMS_P1;PMS_P2;Temp;Humidity;BMP_temperature;BMP_pressure;BME280_temperature;BME280_humidity;BME280_pressure;Samples;Min_cycle;Max_cycle;Signal;HPM_P1;HPM_P2
2023/12/31 00:01:01;;;;;;;;;;;;;;;8.24;100.00;100444.84;5022523;28;20226;-81
2023/12/31 00:03:27;;;;;;;;;;;;;;;8.33;100.00;100436.13;5003145;28;19920;-80
2023/12/31 00:05:52;;;;;;;;;;;;;;;8.38;100.00;100423.25;5006947;28;19975;-81
2023/12/31 00:08:17;;;;;;;;;;;;;;;8.32;100.00;100426.41;5008460;28;20002;-82
2023/12/31 00:10:42;;;;;;;;;;;;;;;8.34;100.00;100420.91;5028246;28;19925;-80
2023/12/31 00:13:08;;;;;;;;;;;;;;;8.28;100.00;100408.88;5009209;28;20019;-80
2023/12/31 00:15:33;;;;;;;;;;;;;;;8.29;100.00;100401.69;5015884;28;20637;-82
2023/12/31 00:17:58;;;;;;;;;;;;;;;8.56;100.00;100393.44;5008071;28;19968;-79
2023/12/31 00:20:23;;;;;;;;;;;;;;;8.46;100.00;100395.06;5013913;28;20044;-78
2023/12/31 00:22:48;;;;;;;;;;;;;;;8.35;100.00;100386.00;5012335;28;19973;-83
2023/12/31 00:25:14;;;;;;;;;;;;;;;8.44;100.00;100381.81;5033750;28;19956;-78
2023/12/31 00:27:41;;;;;;;;;;;;;;;8.38;100.00;100380.44;5013326;28;19992;-82
2023/12/31 00:30:06;;;;;;;;;;;;;;;8.44;100.00;100379.13;5013243;28;19920;-81
2023/12/31 00:32:31;;;;;;;;;;;;;;;8.40;100.00;100361.63;5016946;28;19947;-81
2023/12/31 00:34:57;;;;;;;;;;;;;;;8.44;100.00;100347.03;5015064;28;20282;-81
2023/12/31 00:37:22;;;;;;;;;;;;;;;8.51;100.00;100348.28;5009488;28;19925;-80
2023/12/31 00:39:47;;;;;;;;;;;;;;;8.49;100.00;100346.69;5031130;28;19935;-82
2023/12/31 00:42:12;;;;;;;;;;;;;;;8.53;100.00;100342.81;5012676;28;19932;-80
2023/12/31 00:44:38;;;;;;;;;;;;;;;8.42;100.00;100316.88;5025719;28;20450;-77
2023/12/31 00:47:03;;;;;;;;;;;;;;;8.45;100.00;100338.03;5027301;28;20366;-82
2023/12/31 00:49:28;;;;;;;;;;;;;;;8.61;100.00;100326.16;5020831;28;19924;-80
2023/12/31 00:51:54;;;;;;;;;;;;;;;8.68;100.00;100320.22;5022946;28;20402;-81
2023/12/31 00:54:19;;;;;;;;;;;;;;;8.72;100.00;100320.84;5023637;28;19921;-79
2023/12/31 00:56:44;;;;;;;;;;;;;;;8.51;100.00;100313.50;5010084;28;20422;-82
2023/12/31 00:59:09;;;;;;;;;;;;;;;8.70;100.00;100285.31;5019561;28;20707;-76
2023/12/31 01:01:35;;;;;;;;;;;;;;;8.58;100.00;100299.66;5009446;28;19964;-79
2023/12/31 01:04:00;;;;;;;;;;;;;;;8.64;100.00;100300.00;5023107;28;19975;-77
2023/12/31 01:06:25;;;;;;;;;;;;;;;8.63;100.00;100289.44;5006154;28;20011;-80
2023/12/31 01:08:51;;;;;;;;;;;;;;;8.79;100.00;100281.06;5006758;28;19928;-82
2023/12/31 01:11:16;;;;;;;;;;;;;;;8.79;100.00;100265.84;5007710;28;20070;-78
2023/12/31 01:13:41;;;;;;;;;;;;;;;8.79;100.00;100273.03;5005800;28;19952;-76
2023/12/31 01:16:06;;;;;;;;;;;;;;;8.92;100.00;100267.53;5022871;28;20099;-82
2023/12/31 01:18:32;;;;;;;;;;;;;;;8.85;100.00;100277.91;5003752;28;19931;-79
2023/12/31 01:20:57;;;;;;;;;;;;;;;8.61;100.00;100270.81;5004948;28;20252;-82
2023/12/31 01:23:22;;;;;;;;;;;;;;;8.68;100.00;100268.53;5005609;28;20358;-80
2023/12/31 01:25:47;;;;;;;;;;;;;;;8.83;100.00;100248.56;5006858;28;20393;-79
2023/12/31 01:28:13;;;;;;;;;;;;;;;8.86;100.00;100244.81;5007479;28;20578;-80
2023/12/31 01:30:38;;;;;;;;;;;;;;;8.63;100.00;100235.91;5007762;28;19924;-82
2023/12/31 01:33:03;;;;;;;;;;;;;;;8.81;100.00;100242.47;5025762;28;19931;-81
2023/12/31 01:35:28;;;;;;;;;;;;;;;8.72;100.00;100235.19;5023022;28;19928;-83
2023/12/31 01:37:54;;;;;;;;;;;;;;;8.64;100.00;100230.44;5028694;28;20275;-82
2023/12/31 01:40:19;;;;;;;;;;;;;;;8.64;100.00;100225.06;5028660;28;19928;-81
2023/12/31 01:42:44;;;;;;;;;;;;;;;8.83;100.00;100219.09;5036191;28;20482;-77
2023/12/31 01:45:10;;;;;;;;;;;;;;;8.72;100.00;100231.66;5026427;28;19991;-83
2023/12/31 01:47:35;;;;;;;;;;;;;;;8.67;100.00;100240.06;5024290;28;19921;-76
2023/12/31 01:50:01;;;;;;;;;;;;;;;8.81;100.00;100225.56;5037390;28;20293;-80
2023/12/31 01:52:26;;;;;;;;;;;;;;;8.52;100.00;100218.03;5022570;28;20484;-81
2023/12/31 01:54:52;;;;;;;;;;;;;;;8.61;100.00;100213.78;5009930;28;19920;-81
2023/12/31 01:57:17;;;;;;;;;;;;;;;8.64;100.00;100211.69;5023378;28;19931;-81
2023/12/31 01:59:43;;;;;;;;;;;;;;;8.55;100.00;100202.59;5019712;28;20412;-81
2023/12/31 02:02:08;;;;;;;;;;;;;;;8.46;100.00;100208.66;5022437;28;19920;-82
2023/12/31 02:04:33;;;;;;;;;;;;;;;8.26;100.00;100176.28;5009411;28;20970;-82
2023/12/31 02:06:59;;;;;;;;;;;;;;;8.54;100.00;100186.66;5017599;28;19921;-82
2023/12/31 02:09:24;;;;;;;;;;;;;;;8.63;100.00;100188.59;5024022;28;19925;-80
2023/12/31 02:11:50;;;;;;;;;;;;;;;8.72;100.00;100173.63;5012810;28;19971;-78
2023/12/31 02:14:15;;;;;;;;;;;;;;;8.74;100.00;100173.50;5012773;28;19921;-80
2023/12/31 02:16:40;;;;;;;;;;;;;;;8.69;100.00;100164.00;5014585;28;19948;-81
2023/12/31 02:19:05;;;;;;;;;;;;;;;8.43;100.00;100174.13;5013694;28;19917;-79
2023/12/31 02:21:30;;;;;;;;;;;;;;;8.58;100.00;100161.38;5029644;28;20147;-78
2023/12/31 02:23:56;;;;;;;;;;;;;;;8.38;100.00;100158.41;5027513;28;20443;-80
2023/12/31 02:26:21;;;;;;;;;;;;;;;8.24;100.00;100153.31;5031385;28;19927;-81
2023/12/31 02:28:46;;;;;;;;;;;;;;;8.36;100.00;100148.81;5013596;28;19929;-81
2023/12/31 02:31:11;;;;;;;;;;;;;;;8.41;100.00;100142.13;5034027;28;19920;-83
2023/12/31 02:33:37;;;;;;;;;;;;;;;8.46;100.00;100140.91;5026930;28;20178;-78
2023/12/31 02:36:02;;;;;;;;;;;;;;;8.47;100.00;100135.44;5013545;28;20047;-81
2023/12/31 02:38:28;;;;;;;;;;;;;;;8.23;100.00;100133.72;5026614;28;19966;-83
2023/12/31 02:40:53;;;;;;;;;;;;;;;8.38;100.00;100134.34;5031466;28;19925;-81
2023/12/31 02:43:18;;;;;;;;;;;;;;;8.48;100.00;100107.72;5029246;28;19963;-81
2023/12/31 02:45:43;;;;;;;;;;;;;;;8.34;100.00;100114.16;5038263;28;19924;-79
2023/12/31 02:48:09;;;;;;;;;;;;;;;8.54;100.00;100117.94;5025217;28;19968;-81
2023/12/31 02:50:34;;;;;;;;;;;;;;;8.48;100.00;100101.50;5024811;28;20016;-80
2023/12/31 02:52:59;;;;;;;;;;;;;;;8.29;100.00;100097.66;5008264;28;20220;-79
2023/12/31 02:55:24;;;;;;;;;;;;;;;8.30;100.00;100088.66;5008609;28;19924;-81
2023/12/31 02:57:49;;;;;;;;;;;;;;;8.19;100.00;100086.84;5007694;28;20631;-80
2023/12/31 03:00:15;;;;;;;;;;;;;;;8.36;100.00;100074.75;5022105;28;20469;-82
2023/12/31 03:02:40;;;;;;;;;;;;;;;8.32;100.00;100073.34;5023856;28;19930;-83
2023/12/31 03:05:07;;;;;;;;;;;;;;;8.29;100.00;100046.81;5025030;28;19928;-83
2023/12/31 03:07:32;;;;;;;;;;;;;;;8.41;100.00;100058.34;5012628;28;19932;-80
2023/12/31 03:09:58;;;;;;;;;;;;;;;8.26;100.00;100045.22;5006726;28;20278;-84
2023/12/31 03:12:23;;;;;;;;;;;;;;;8.18;100.00;100046.84;5028150;28;19925;-81
2023/12/31 03:14:48;;;;;;;;;;;;;;;8.34;100.00;100047.28;5020834;28;19924;-82
2023/12/31 03:17:14;;;;;;;;;;;;;;;8.37;100.00;100047.03;5025231;28;19963;-76
2023/12/31 03:19:39;;;;;;;;;;;;;;;8.29;100.00;100045.97;5024302;28;19932;-77
2023/12/31 03:22:04;;;;;;;;;;;;;;;8.26;100.00;100037.22;5026767;28;19960;-80
2023/12/31 03:24:30;;;;;;;;;;;;;;;8.43;100.00;100026.13;5024618;28;19920;-79
2023/12/31 03:26:58;;;;;;;;;;;;;;;8.44;100.00;100031.34;5033898;22;19929;-90
2023/12/31 03:29:26;;;;;;;;;;;;;;;8.39;100.00;100013.00;5022186;28;19921;-90
2023/12/31 03:31:52;;;;;;;;;;;;;;;8.46;100.00;100017.84;5005652;28;20347;-87
2023/12/31 03:34:26;;;;;;;;;;;;;;;8.40;100.00;100013.84;5008523;28;20008;-92
2023/12/31 03:36:55;;;;;;;;;;;;;;;8.17;100.00;99992.53;5024779;28;19921;-89
2023/12/31 03:39:22;;;;;;;;;;;;;;;8.08;100.00;99990.59;5022657;28;19921;-88
2023/12/31 03:41:53;;;;;;;;;;;;;;;8.15;100.00;99966.84;5023270;28;19925;-90
2023/12/31 03:44:19;;;;;;;;;;;;;;;8.25;100.00;99965.97;5014926;28;19968;-88
2023/12/31 03:46:44;;;;;;;;;;;;;;;8.11;100.00;99967.09;5005255;28;20032;-88
2023/12/31 03:49:26;;;;;;;;;;;;;;;;;;;;;
2023/12/31 03:51:54;;;;;;;;;;;;;;;8.23;100.00;99956.41;5035117;28;20286;-88
2023/12/31 03:54:19;;;;;;;;;;;;;;;8.19;100.00;99949.59;5008568;28;20343;-86
2023/12/31 03:56:53;;;;;;;;;;;;;;;8.14;100.00;99923.25;5004064;28;19928;-90
2023/12/31 04:00:07;;;;;;;;;;;;;;;8.29;100.00;99923.81;5022938;28;20007;-87
2023/12/31 04:02:30;;;;;;;;;;;;;;;8.16;100.00;99917.75;5020244;28;19921;-90
2023/12/31 04:04:55;;;;;;;;;;;;;;;8.10;100.00;99914.59;5005918;28;19951;-89
2023/12/31 04:07:21;;;;;;;;;;;;;;;8.06;100.00;99906.97;5007153;28;19951;-88
2023/12/31 04:09:46;;;;;;;;;;;;;;;7.95;100.00;99894.50;5009419;28;19925;-89
2023/12/31 04:12:14;;;;;;;;;;;;;;;8.06;100.00;99889.13;5014263;28;19966;-89
2023/12/31 04:14:42;;;;;;;;;;;;;;;8.01;100.00;99894.00;5020598;28;19923;-90
2023/12/31 04:17:14;;;;;;;;;;;;;;;8.15;100.00;99881.28;5012319;28;19917;-89
2023/12/31 04:19:39;;;;;;;;;;;;;;;8.12;100.00;99882.41;5006471;28;19921;-89
2023/12/31 04:22:04;;;;;;;;;;;;;;;8.28;100.00;99859.72;5022935;28;20695;-88
2023/12/31 04:24:30;;;;;;;;;;;;;;;8.18;100.00;99847.16;5008447;28;19963;-87
2023/12/31 04:26:57;;;;;;;;;;;;;;;8.20;100.00;99863.91;5007995;28;19929;-89
2023/12/31 04:29:31;;;;;;;;;;;;;;;8.45;100.00;99853.81;5019210;28;20027;-90
2023/12/31 04:31:56;;;;;;;;;;;;;;;8.09;100.00;99851.41;5022616;28;19923;-89
2023/12/31 04:34:22;;;;;;;;;;;;;;;8.18;100.00;99827.56;5024928;28;19917;-88
2023/12/31 04:36:47;;;;;;;;;;;;;;;8.26;100.00;99846.50;5023601;28;19936;-86
2023/12/31 04:39:12;;;;;;;;;;;;;;;8.26;100.00;99831.28;5023018;28;19929;-87
2023/12/31 04:41:37;;;;;;;;;;;;;;;8.19;100.00;99827.47;5021126;28;19914;-85
2023/12/31 04:44:03;;;;;;;;;;;;;;;8.25;100.00;99832.25;5017434;28;19921;-88
2023/12/31 04:46:35;;;;;;;;;;;;;;;7.92;100.00;99806.53;5020390;28;19932;-90
2023/12/31 04:49:00;;;;;;;;;;;;;;;8.19;100.00;99813.22;5021961;28;19924;-87
2023/12/31 04:51:26;;;;;;;;;;;;;;;8.35;100.00;99810.94;5014877;28;20383;-86
2023/12/31 04:53:52;;;;;;;;;;;;;;;8.19;100.00;99818.56;5021031;28;19924;-85
2023/12/31 04:56:18;;;;;;;;;;;;;;;8.14;100.00;99818.09;5006489;28;19917;-88
2023/12/31 04:58:44;;;;;;;;;;;;;;;8.05;100.00;99806.38;5022115;28;20726;-87
2023/12/31 05:01:18;;;;;;;;;;;;;;;8.21;100.00;99801.41;5021154;28;19960;-90
2023/12/31 05:03:46;;;;;;;;;;;;;;;8.03;100.00;99800.28;5008082;28;19921;-90
2023/12/31 05:06:12;;;;;;;;;;;;;;;8.10;100.00;99793.47;5005347;28;19928;-86
2023/12/31 05:08:38;;;;;;;;;;;;;;;8.25;100.00;99794.81;5019313;28;19922;-89
2023/12/31 05:11:20;;;;;;;;;;;;;;;8.22;100.00;99776.38;5003953;28;19917;-89
2023/12/31 05:13:45;;;;;;;;;;;;;;;8.29;100.00;99763.34;5007715;28;20007;-86
2023/12/31 05:16:14;;;;;;;;;;;;;;;8.43;100.00;99769.31;5008273;28;20339;-90
2023/12/31 05:18:43;;;;;;;;;;;;;;;8.28;100.00;99766.13;5003879;28;19921;-88
2023/12/31 05:21:26;;;;;;;;;;;;;;;8.43;100.00;99761.28;5018143;28;19924;-89
2023/12/31 05:23:57;;;;;;;;;;;;;;;8.27;100.00;99757.28;5002541;28;19921;-88
2023/12/31 05:26:23;;;;;;;;;;;;;;;8.40;100.00;99751.72;5019197;28;19925;-85
2023/12/31 05:28:48;;;;;;;;;;;;;;;8.30;100.00;99749.00;5018596;28;19940;-88
2023/12/31 05:31:13;;;;;;;;;;;;;;;8.41;100.00;99743.53;5016812;28;19924;-89
2023/12/31 05:33:40;;;;;;;;;;;;;;;8.33;100.00;99737.16;5026280;28;19921;-88
2023/12/31 05:36:05;;;;;;;;;;;;;;;8.35;100.00;99730.69;5000202;28;20408;-88
2023/12/31 05:38:31;;;;;;;;;;;;;;;8.23;100.00;99723.75;5002349;28;20007;-86
2023/12/31 05:41:02;;;;;;;;;;;;;;;8.18;100.00;99725.97;5019606;28;20375;-87
2023/12/31 05:43:31;;;;;;;;;;;;;;;8.23;100.00;99694.34;5015613;28;19940;-90
2023/12/31 05:45:56;;;;;;;;;;;;;;;8.36;100.00;99713.66;5016166;28;19917;-85
2023/12/31 05:48:29;;;;;;;;;;;;;;;8.40;100.00;99703.56;5016105;28;19932;-89
2023/12/31 05:51:04;;;;;;;;;;;;;;;8.36;100.00;99711.00;5003398;28;19921;-89
2023/12/31 05:53:39;;;;;;;;;;;;;;;8.43;100.00;99700.63;5012479;28;19928;-90
2023/12/31 05:56:11;;;;;;;;;;;;;;;8.40;100.00;99687.53;4998605;28;19971;-90
2023/12/31 05:58:37;;;;;;;;;;;;;;;8.38;100.00;99679.63;5009438;28;19928;-88
2023/12/31 06:01:19;;;;;;;;;;;;;;;8.26;100.00;99694.06;5013384;28;19925;-89
2023/12/31 06:03:56;;;;;;;;;;;;;;;8.32;100.00;99679.31;5006033;28;19921;-89
2023/12/31 06:09:07;;;;;;;;;;;;;;;8.52;100.00;99670.41;5029695;28;19932;-88
2023/12/31 06:11:38;;;;;;;;;;;;;;;8.37;100.00;99674.41;5016951;28;19921;-90
2023/12/31 06:14:03;;;;;;;;;;;;;;;8.34;100.00;99672.00;5018778;28;20694;-86
2023/12/31 06:16:31;;;;;;;;;;;;;;;8.50;100.00;99667.03;5013045;28;19994;-89
2023/12/31 06:18:59;;;;;;;;;;;;;;;8.55;100.00;99667.47;5006168;28;19968;-87
2023/12/31 06:21:24;;;;;;;;;;;;;;;8.59;100.00;99680.59;5019939;28;19974;-88
2023/12/31 06:23:50;;;;;;;;;;;;;;;8.54;100.00;99663.09;5006966;28;19925;-89
2023/12/31 06:26:33;;;;;;;;;;;;;;;8.54;100.00;99647.06;5022029;28;20419;-91
2023/12/31 06:28:59;;;;;;;;;;;;;;;8.50;100.00;99661.69;5019289;28;19922;-88
2023/12/31 06:31:24;;;;;;;;;;;;;;;8.51;100.00;99630.44;5019468;28;19932;-86
2023/12/31 06:34:08;;;;;;;;;;;;;;;8.50;100.00;99634.94;5020432;28;19921;-89
2023/12/31 06:36:34;;;;;;;;;;;;;;;8.50;100.00;99642.13;5018228;28;19917;-88
2023/12/31 06:38:59;;;;;;;;;;;;;;;8.47;100.00;99637.00;5006415;28;20012;-87
2023/12/31 06:41:25;;;;;;;;;;;;;;;8.37;100.00;99627.09;5004318;28;20283;-86
2023/12/31 06:43:50;;;;;;;;;;;;;;;8.43;100.00;99649.81;5039032;28;20395;-89
2023/12/31 06:46:21;;;;;;;;;;;;;;;8.43;100.00;99647.13;5015310;28;20346;-90
2023/12/31 06:48:46;;;;;;;;;;;;;;;8.36;100.00;99630.75;5012629;28;19980;-88
2023/12/31 06:51:17;;;;;;;;;;;;;;;8.37;100.00;99623.59;5018776;28;20423;-88
2023/12/31 06:53:45;;;;;;;;;;;;;;;8.40;100.00;99609.97;5000880;28;19921;-90
2023/12/31 06:56:13;;;;;;;;;;;;;;;8.18;100.00;99609.19;5013475;28;19921;-89
2023/12/31 06:58:38;;;;;;;;;;;;;;;8.23;100.00;99603.41;5004359;28;19956;-87
2023/12/31 07:01:09;;;;;;;;;;;;;;;8.10;100.00;99599.13;5009050;28;20008;-91
2023/12/31 07:03:40;;;;;;;;;;;;;;;8.19;100.00;99596.66;5006219;28;20387;-90
2023/12/31 07:06:07;;;;;;;;;;;;;;;8.10;100.00;99595.63;5015667;28;19971;-86
2023/12/31 07:08:32;;;;;;;;;;;;;;;8.07;100.00;99586.06;5012167;28;19929;-89
2023/12/31 07:11:04;;;;;;;;;;;;;;;8.10;100.00;99577.75;5003347;28;20275;-89
2023/12/31 07:13:41;;;;;;;;;;;;;;;8.11;100.00;99597.31;5012264;28;19925;-89
2023/12/31 07:16:07;;;;;;;;;;;;;;;8.13;100.00;99579.31;5023578;28;19924;-90
2023/12/31 07:18:38;;;;;;;;;;;;;;;8.15;100.00;99577.38;5015923;28;19924;-88
2023/12/31 07:21:44;;;;;;;;;;;;;;;8.15;100.00;99572.00;5015081;28;19967;-89
2023/12/31 07:24:09;;;;;;;;;;;;;;;8.15;100.00;99572.00;4941818;28;19926;-88
2023/12/31 07:26:41;;;;;;;;;;;;;;;8.09;100.00;99561.84;4941220;28;19926;-90
2023/12/31 07:29:06;;;;;;;;;;;;;;;8.19;100.00;99565.41;4980365;28;19948;-89
2023/12/31 07:31:35;;;;;;;;;;;;;;;8.20;100.00;99561.78;4985321;28;20412;-86
2023/12/31 07:34:00;;;;;;;;;;;;;;;8.25;100.00;99556.00;5000363;28;19917;-88
2023/12/31 07:36:26;;;;;;;;;;;;;;;8.37;100.00;99549.53;4979549;28;19921;-90
2023/12/31 07:38:51;;;;;;;;;;;;;;;8.50;100.00;99545.81;4982113;28;19921;-88
2023/12/31 07:41:19;;;;;;;;;;;;;;;8.33;100.00;99552.63;4978068;28;19929;-89
2023/12/31 07:43:45;;;;;;;;;;;;;;;8.45;100.00;99542.66;4982020;28;20758;-89
2023/12/31 07:46:10;;;;;;;;;;;;;;;8.35;100.00;99537.31;4982864;28;19928;-90
2023/12/31 07:48:39;;;;;;;;;;;;;;;8.42;100.00;99535.78;4981919;28;19948;-89
2023/12/31 07:51:09;;;;;;;;;;;;;;;8.40;100.00;99524.38;4984400;28;19921;-90
2023/12/31 07:53:34;;;;;;;;;;;;;;;8.44;100.00;99540.97;4980393;28;19940;-90
2023/12/31 07:55:59;;;;;;;;;;;;;;;8.36;100.00;99539.00;4973759;28;19926;-88
2023/12/31 07:58:27;;;;;;;;;;;;;;;8.47;100.00;99536.22;4974429;28;20319;-89
2023/12/31 08:00:55;;;;;;;;;;;;;;;8.49;100.00;99517.38;4964100;28;19917;-89
2023/12/31 08:03:21;;;;;;;;;;;;;;;8.53;100.00;99511.59;4965385;28;19922;-88
2023/12/31 08:05:46;;;;;;;;;;;;;;;8.44;100.00;99506.22;4976594;28;19929;-88
2023/12/31 08:08:14;;;;;;;;;;;;;;;8.31;100.00;99518.03;4965662;28;19926;-90
2023/12/31 08:11:01;;;;;;;;;;;;;;;8.48;100.00;99502.28;4982604;28;20343;-90
2023/12/31 08:13:29;;;;;;;;;;;;;;;8.56;100.00;99497.13;4975662;28;20003;-90
2023/12/31 08:15:59;;;;;;;;;;;;;;;8.50;100.00;99497.66;4972431;28;19926;-90
2023/12/31 08:18:27;;;;;;;;;;;;;;;8.59;100.00;99490.63;4973607;28;19924;-89
2023/12/31 08:20:52;;;;;;;;;;;;;;;8.56;100.00;99505.13;4998745;28;19925;-88
2023/12/31 08:23:19;;;;;;;;;;;;;;;8.39;100.00;99494.09;4987999;28;19937;-86
2023/12/31 08:25:44;;;;;;;;;;;;;;;8.56;100.00;99497.13;4975045;28;19971;-87
2023/12/31 08:28:12;;;;;;;;;;;;;;;8.57;100.00;99493.47;5007201;28;19926;-88
2023/12/31 08:30:37;;;;;;;;;;;;;;;8.61;100.00;99468.09;4995736;28;19921;-88
2023/12/31 08:33:02;;;;;;;;;;;;;;;8.78;100.00;99474.56;4991905;28;19925;-87
2023/12/31 08:35:28;;;;;;;;;;;;;;;8.75;100.00;99460.63;4987545;28;19931;-86
2023/12/31 08:37:53;;;;;;;;;;;;;;;8.63;100.00;99476.00;5003959;28;19959;-85
2023/12/31 08:40:21;;;;;;;;;;;;;;;8.82;100.00;99491.22;5022724;28;20264;-86
2023/12/31 08:42:46;;;;;;;;;;;;;;;8.78;100.00;99479.09;4989368;28;20006;-85
2023/12/31 08:45:11;;;;;;;;;;;;;;;8.81;100.00;99479.63;5002876;28;20538;-88
2023/12/31 08:47:38;;;;;;;;;;;;;;;8.84;100.00;99483.88;5005504;28;19921;-86
2023/12/31 08:50:08;;;;;;;;;;;;;;;8.76;100.00;99492.59;4990424;28;20328;-87
2023/12/31 08:52:33;;;;;;;;;;;;;;;8.86;100.00;99487.25;5009324;28;19925;-89
2023/12/31 08:54:59;;;;;;;;;;;;;;;8.79;100.00;99481.59;5007110;28;19921;-89
2023/12/31 08:57:24;;;;;;;;;;;;;;;8.73;100.00;99489.38;5001068;28;19931;-88
2023/12/31 08:59:49;;;;;;;;;;;;;;;8.95;100.00;99477.53;5004435;28;20493;-88
2023/12/31 09:02:15;;;;;;;;;;;;;;;9.02;100.00;99491.19;4986913;28;20019;-89
2023/12/31 09:04:40;;;;;;;;;;;;;;;9.23;100.00;99486.50;4984258;28;20683;-86
2023/12/31 09:07:05;;;;;;;;;;;;;;;9.32;100.00;99492.81;5002143;28;19924;-86
2023/12/31 09:09:30;;;;;;;;;;;;;;;9.47;100.00;99477.13;4999528;28;19983;-88
2023/12/31 09:11:56;;;;;;;;;;;;;;;9.55;100.00;99490.66;5000442;28;19926;-86
2023/12/31 09:14:21;;;;;;;;;;;;;;;9.48;100.00;99475.31;5000786;28;19933;-85
2023/12/31 09:16:46;;;;;;;;;;;;;;;9.41;100.00;99459.81;5001376;28;19949;-86
2023/12/31 09:19:12;;;;;;;;;;;;;;;9.45;100.00;99489.81;4989366;28;19972;-85
2023/12/31 09:21:37;;;;;;;;;;;;;;;9.36;100.00;99488.03;5003019;28;19964;-85
2023/12/31 09:24:02;;;;;;;;;;;;;;;9.18;100.00;99471.84;5003574;28;19999;-85
2023/12/31 09:26:27;;;;;;;;;;;;;;;9.38;100.00;99491.41;5020577;28;19964;-86
2023/12/31 09:28:52;;;;;;;;;;;;;;;9.18;100.00;99495.97;5005175;28;19925;-86
2023/12/31 09:31:20;;;;;;;;;;;;;;;9.32;100.00;99503.53;4984306;28;19921;-85
2023/12/31 09:33:45;;;;;;;;;;;;;;;9.33;100.00;99485.63;5015843;28;19932;-86
2023/12/31 09:36:11;;;;;;;;;;;;;;;9.38;100.00;99519.03;5003126;28;19921;-87
2023/12/31 09:38:36;;;;;;;;;;;;;;;9.26;100.00;99506.81;5003098;28;19937;-87
2023/12/31 09:41:04;;;;;;;;;;;;;;;9.18;100.00;99490.59;5005483;28;19933;-87
2023/12/31 09:43:29;;;;;;;;;;;;;;;9.27;100.00;99517.38;5002556;28;19922;-87
2023/12/31 09:45:54;;;;;;;;;;;;;;;9.20;100.00;99515.41;4985018;28;19944;-85
2023/12/31 09:48:20;;;;;;;;;;;;;;;9.14;100.00;99530.19;5004529;28;20036;-88
2023/12/31 09:50:46;;;;;;;;;;;;;;;9.11;100.00;99525.16;4986481;28;19925;-85
2023/12/31 09:53:11;;;;;;;;;;;;;;;9.01;100.00;99501.03;5003519;28;20415;-89
2023/12/31 09:55:36;;;;;;;;;;;;;;;9.10;100.00;99502.88;4985040;28;19924;-85
2023/12/31 09:58:02;;;;;;;;;;;;;;;9.22;100.00;99527.66;5003707;28;19925;-87
2023/12/31 10:00:28;;;;;;;;;;;;;;;9.19;100.00;99544.00;4989211;28;20359;-85
2023/12/31 10:02:56;;;;;;;;;;;;;;;9.22;100.00;99522.31;4993242;28;19913;-88
2023/12/31 10:05:22;;;;;;;;;;;;;;;9.11;100.00;99525.16;4991348;28;19944;-85
2023/12/31 10:07:47;;;;;;;;;;;;;;;9.01;100.00;99535.84;5005305;28;19913;-85
2023/12/31 10:10:14;;;;;;;;;;;;;;;8.99;100.00;99548.56;5027235;28;19948;-87
2023/12/31 10:12:39;;;;;;;;;;;;;;;9.09;100.00;99521.75;5016528;28;19968;-87
2023/12/31 10:15:07;;;;;;;;;;;;;;;9.05;100.00;99523.88;5004651;28;19921;-87
2023/12/31 10:17:32;;;;;;;;;;;;;;;9.04;100.00;99514.13;5008712;28;20587;-86
2023/12/31 10:19:58;;;;;;;;;;;;;;;8.97;100.00;99524.56;4986073;28;19921;-85
2023/12/31 10:22:24;;;;;;;;;;;;;;;8.85;100.00;99531.91;4982531;28;19921;-87
2023/12/31 10:24:49;;;;;;;;;;;;;;;8.92;100.00;99518.78;4989922;28;19949;-86
2023/12/31 10:27:14;;;;;;;;;;;;;;;8.79;100.00;99537.81;4990980;28;19921;-87
2023/12/31 10:29:39;;;;;;;;;;;;;;;8.70;100.00;99527.97;4986590;28;19932;-85
2023/12/31 10:32:06;;;;;;;;;;;;;;;8.81;100.00;99517.09;5000606;28;19925;-85
2023/12/31 10:34:35;;;;;;;;;;;;;;;8.91;100.00;99508.25;5002251;28;20029;-89
2023/12/31 10:37:03;;;;;;;;;;;;;;;9.11;100.00;99507.22;4990123;28;20016;-86
2023/12/31 10:39:29;;;;;;;;;;;;;;;9.04;100.00;99499.91;5020105;28;19925;-86
2023/12/31 10:42:03;;;;;;;;;;;;;;;9.17;100.00;99499.63;4984802;28;19926;-87
2023/12/31 10:44:29;;;;;;;;;;;;;;;9.14;100.00;99511.44;5000581;28;19963;-85
2023/12/31 10:46:56;;;;;;;;;;;;;;;8.71;100.00;99524.31;4992957;28;19921;-88
2023/12/31 10:49:22;;;;;;;;;;;;;;;8.49;100.00;99530.75;5004309;28;19974;-85
2023/12/31 10:51:47;;;;;;;;;;;;;;;8.58;100.00;99505.00;5004216;28;22179;-87
2023/12/31 10:54:15;;;;;;;;;;;;;;;8.18;100.00;99533.47;4952217;23;1811754;-79
2023/12/31 10:56:40;;;;;;;;;;;;;;;8.09;100.00;99519.91;5040191;28;20508;-78
2023/12/31 10:59:05;;;;;;;;;;;;;;;7.97;100.00;99523.69;5044666;28;19959;-78
2023/12/31 11:01:31;;;;;;;;;;;;;;;8.00;100.00;99541.28;5047612;28;20589;-78
2023/12/31 11:03:56;;;;;;;;;;;;;;;7.90;100.00;99530.53;5051889;28;19920;-80
2023/12/31 11:06:21;;;;;;;;;;;;;;;7.80;100.00;99536.72;5046165;28;19912;-78
2023/12/31 11:08:46;;;;;;;;;;;;;;;7.73;100.00;99542.69;5045523;28;19925;-77
2023/12/31 11:11:12;;;;;;;;;;;;;;;7.45;100.00;99539.72;5028163;28;19956;-76
2023/12/31 11:13:38;;;;;;;;;;;;;;;7.43;100.00;99529.19;5013299;28;19928;-74
2023/12/31 11:16:03;;;;;;;;;;;;;;;7.22;100.00;99537.19;5035953;28;19993;-75
2023/12/31 11:18:43;;;;;;;;;;;;;;;7.20;100.00;99541.81;5039174;28;19918;-74
2023/12/31 11:21:08;;;;;;;;;;;;;;;7.35;100.00;99542.34;5020837;28;19924;-75
2023/12/31 11:23:38;;;;;;;;;;;;;;;7.45;100.00;99529.03;5041409;28;19917;-76
2023/12/31 11:26:05;;;;;;;;;;;;;;;7.69;100.00;99527.91;5050915;28;20433;-77
2023/12/31 11:28:30;;;;;;;;;;;;;;;7.76;100.00;99521.06;5031973;28;20016;-78
2023/12/31 11:30:57;;;;;;;;;;;;;;;7.76;100.00;99519.25;5040143;28;20290;-75
2023/12/31 11:33:27;;;;;;;;;;;;;;;7.67;100.00;99529.91;5041327;28;19923;-75
2023/12/31 11:35:53;;;;;;;;;;;;;;;7.67;100.00;99541.41;5039616;28;19921;-75
2023/12/31 11:38:21;;;;;;;;;;;;;;;7.70;100.00;99519.78;5037759;28;20413;-74
2023/12/31 11:40:48;;;;;;;;;;;;;;;7.59;100.00;99547.44;5042917;28;19921;-74
2023/12/31 11:43:14;;;;;;;;;;;;;;;7.68;100.00;99535.09;5041697;28;19916;-74
2023/12/31 11:45:43;;;;;;;;;;;;;;;7.73;100.00;99537.34;5041514;28;19931;-75
2023/12/31 11:48:24;;;;;;;;;;;;;;;7.74;100.00;99536.38;5043128;28;19925;-74
2023/12/31 11:50:50;;;;;;;;;;;;;;;7.78;100.00;99529.78;5042302;28;19924;-75
2023/12/31 11:53:15;;;;;;;;;;;;;;;7.83;100.00;99529.38;5042760;28;19931;-74
2023/12/31 11:55:42;;;;;;;;;;;;;;;8.06;100.00;99530.03;5041804;28;19925;-75
2023/12/31 11:58:08;;;;;;;;;;;;;;;8.55;100.00;99533.72;5037384;28;20369;-75
2023/12/31 12:00:33;;;;;;;;;;;;;;;8.58;100.00;99531.75;5059564;28;19916;-75
2023/12/31 12:03:01;;;;;;;;;;;;;;;8.53;100.00;99522.28;5042197;28;19917;-76
2023/12/31 12:05:26;;;;;;;;;;;;;;;8.39;100.00;99525.34;5040174;28;19967;-74
2023/12/31 12:07:51;;;;;;;;;;;;;;;8.28;100.00;99522.78;5044905;28;20031;-75
2023/12/31 12:10:16;;;;;;;;;;;;;;;8.37;100.00;99533.50;5042699;28;20831;-74
2023/12/31 12:12:42;;;;;;;;;;;;;;;9.18;100.00;99515.53;5038909;28;19966;-77
2023/12/31 12:15:07;;;;;;;;;;;;;;;9.80;100.00;99523.13;5040135;28;19987;-78
2023/12/31 12:17:33;;;;;;;;;;;;;;;9.51;100.00;99531.28;5025119;28;19923;-77
2023/12/31 12:20:00;;;;;;;;;;;;;;;9.41;100.00;99525.91;5040684;28;20006;-75
2023/12/31 12:22:26;;;;;;;;;;;;;;;10.29;100.00;99539.03;5044093;28;19928;-75
2023/12/31 12:24:51;;;;;;;;;;;;;;;10.80;100.00;99528.66;5017214;28;19928;-76
2023/12/31 12:27:16;;;;;;;;;;;;;;;10.39;100.00;99517.53;5039782;28;20014;-76
2023/12/31 12:29:42;;;;;;;;;;;;;;;9.75;100.00;99522.72;5043212;28;20410;-78
2023/12/31 12:32:07;;;;;;;;;;;;;;;9.83;100.00;99509.44;5034940;28;19957;-80
2023/12/31 12:34:32;;;;;;;;;;;;;;;10.71;100.00;99523.38;5030635;28;19927;-80
2023/12/31 12:36:59;;;;;;;;;;;;;;;10.41;100.00;99515.53;5036349;28;20303;-75
2023/12/31 12:39:24;;;;;;;;;;;;;;;10.43;100.00;99526.97;5021966;28;19920;-79
2023/12/31 12:41:50;;;;;;;;;;;;;;;11.03;100.00;99501.34;5022265;28;19968;-81
2023/12/31 12:44:16;;;;;;;;;;;;;;;10.80;100.00;99515.25;5040484;28;19924;-79
2023/12/31 12:46:42;;;;;;;;;;;;;;;10.60;100.00;99519.06;5039563;28;19917;-82